Time;durP1;ratioP1;P1;durP2;ratioP2;P2;SDS_P1;SDS_P2;PMS_P1;PMS_P2;Temp;Humidity;BMP_temperature;BMP_pressure;BME280_temperature;BME280_humidity;BME280_pressure;Samples;Min_cycle;Max_cycle;Signal;HPM_P1;HPM_P2
2022/11/27 00:01:13;;;;;;;6.42;4.70;;;;;;;1.65;84.74;101083.38;1707758;83;21017;-69
2022/11/27 00:03:40;;;;;;;7.78;5.00;;;;;;;1.67;84.75;101089.83;1689309;83;21025;-70
2022/11/27 00:06:07;;;;;;;5.10;4.15;;;;;;;1.66;84.74;101087.67;1706802;82;21003;-69
2022/11/27 00:08:35;;;;;;;5.97;4.90;;;;;;;1.64;84.69;101084.28;1688906;83;20972;-69
2022/11/27 00:11:13;;;;;;;4.95;4.40;;;;;;;1.62;84.67;101086.50;1694012;83;21126;-69
2022/11/27 00:13:40;;;;;;;5.95;4.55;;;;;;;1.60;84.66;101077.89;1692909;84;20966;-69
2022/11/27 00:16:07;;;;;;;5.35;4.28;;;;;;;1.61;84.69;101079.59;1707330;83;21025;-69
2022/11/27 00:18:34;;;;;;;6.47;4.10;;;;;;;1.60;84.69;101081.34;1711539;83;21123;-71
2022/11/27 00:21:07;;;;;;;6.22;4.97;;;;;;;1.61;84.66;101079.59;1710794;80;21805;-69
2022/11/27 00:23:34;;;;;;;7.70;4.92;;;;;;;1.59;84.69;101077.04;1721162;80;20958;-69
2022/11/27 00:26:00;;;;;;;5.08;4.15;;;;;;;1.60;84.68;101083.95;1714411;82;21104;-69
2022/11/27 00:28:28;;;;;;;6.28;4.58;;;;;;;1.60;84.69;101081.80;1712386;82;21058;-69
2022/11/27 00:31:00;;;;;;;5.70;4.40;;;;;;;1.60;84.67;101083.95;1705130;82;21001;-69
2022/11/27 00:33:26;;;;;;;6.45;5.05;;;;;;;1.60;84.66;101083.09;1724872;80;22584;-69
2022/11/27 00:35:54;;;;;;;6.90;4.97;;;;;;;1.60;84.66;101076.14;1723989;80;21036;-70
2022/11/27 00:38:20;;;;;;;7.08;5.53;;;;;;;1.62;84.70;101076.94;1725426;80;21499;-70
2022/11/27 00:40:47;;;;;;;5.95;4.87;;;;;;;1.61;84.68;101076.98;1715133;81;21122;-69
2022/11/27 00:43:16;;;;;;;6.42;5.35;;;;;;;1.63;84.73;101076.48;1730587;80;21149;-69
2022/11/27 00:45:42;;;;;;;6.40;5.70;;;;;;;1.62;84.70;101073.03;1729164;82;21792;-69
2022/11/27 00:48:09;;;;;;;5.97;5.12;;;;;;;1.60;84.68;101078.74;1697137;80;21016;-69
2022/11/27 00:50:37;;;;;;;8.80;6.00;;;;;;;1.61;84.69;101085.66;1735014;82;21006;-69
2022/11/27 00:53:03;;;;;;;6.95;5.60;;;;;;;1.60;84.68;101089.61;1706279;83;21096;-71
2022/11/27 00:55:30;;;;;;;7.42;5.60;;;;;;;1.61;84.71;101093.91;1733628;80;20966;-68
2022/11/27 00:57:57;;;;;;;6.95;6.00;;;;;;;1.62;84.72;101097.77;1726378;81;21962;-68
2022/11/27 01:00:23;;;;;;;5.97;5.37;;;;;;;1.63;84.76;101096.02;1735193;81;21036;-69
2022/11/27 01:02:50;;;;;;;6.58;5.47;;;;;;;1.64;84.77;101086.88;1737535;80;21099;-69
2022/11/27 01:05:17;;;;;;;6.90;5.72;;;;;;;1.63;84.80;101081.24;1739109;82;20957;-68
2022/11/27 01:07:45;;;;;;;7.08;5.92;;;;;;;1.63;84.78;101082.55;1727841;80;21439;-77
2022/11/27 01:10:13;;;;;;;5.83;5.12;;;;;;;1.63;84.81;101083.00;1727324;80;21836;-68
2022/11/27 01:12:39;;;;;;;6.72;5.30;;;;;;;1.63;84.85;101081.69;1700953;83;21431;-70
2022/11/27 01:15:08;;;;;;;7.80;4.70;;;;;;;1.63;84.84;101087.75;1725568;80;21407;-69
2022/11/27 01:17:35;;;;;;;5.62;4.85;;;;;;;1.64;84.85;101086.88;1731259;80;21032;-68
2022/11/27 01:20:02;;;;;;;5.97;4.83;;;;;;;1.65;84.87;101087.28;1737790;80;20993;-69
2022/11/27 01:22:29;;;;;;;6.45;4.75;;;;;;;1.66;84.90;101085.07;1700083;82;21874;-68
2022/11/27 01:24:55;;;;;;;4.87;4.37;;;;;;;1.69;84.89;101075.00;1689563;81;20981;-68
2022/11/27 01:27:22;;;;;;;5.83;4.60;;;;;;;1.70;84.92;101078.86;1707830;81;21060;-68
2022/11/27 01:29:48;;;;;;;5.25;4.30;;;;;;;1.69;84.85;101074.55;1729035;81;21084;-69
2022/11/27 01:32:15;;;;;;;6.17;4.42;;;;;;;1.68;84.81;101069.39;1712621;81;21024;-68
2022/11/27 01:34:41;;;;;;;5.53;4.40;;;;;;;1.67;84.81;101074.20;1692644;81;21934;-68
2022/11/27 01:37:08;;;;;;;4.40;4.00;;;;;;;1.64;84.81;101076.47;1703171;81;20969;-68
2022/11/27 01:39:34;;;;;;;4.90;4.40;;;;;;;1.68;84.85;101081.11;1713447;81;21001;-69
2022/11/27 01:42:01;;;;;;;5.17;4.58;;;;;;;1.66;84.78;101081.17;1728600;81;21060;-68
2022/11/27 01:44:35;;;;;;;5.15;4.25;;;;;;;1.63;84.73;101083.84;1720429;81;21021;-68
2022/11/27 01:47:12;;;;;;;5.67;4.80;;;;;;;1.64;84.79;101083.39;1705489;81;21838;-69
2022/11/27 01:49:46;;;;;;;4.97;4.25;;;;;;;1.64;84.82;101082.09;1718418;81;21114;-68
2022/11/27 01:52:26;;;;;;;5.08;4.58;;;;;;;1.65;84.84;101086.43;1701398;81;21076;-68
2022/11/27 01:55:10;;;;;;;4.85;4.03;;;;;;;1.66;84.79;101082.92;1693663;81;21013;-69
2022/11/27 01:57:40;;;;;;;5.17;4.20;;;;;;;1.65;84.78;101076.02;1700091;81;21447;-69
2022/11/27 02:00:09;;;;;;;5.35;4.55;;;;;;;1.64;84.77;101090.78;1715401;82;22307;-70
2022/11/27 02:02:41;;;;;;;4.62;4.22;;;;;;;1.63;84.78;101088.20;1726327;82;21044;-68
2022/11/27 02:05:09;;;;;;;5.70;4.78;;;;;;;1.64;84.71;101092.50;1722564;81;20965;-69
2022/11/27 02:07:35;;;;;;;4.92;4.42;;;;;;;1.64;84.72;101088.59;1704389;82;21044;-69
2022/11/27 02:10:03;;;;;;;5.75;4.62;;;;;;;1.62;84.67;101086.05;1707235;81;21021;-69
2022/11/27 02:12:56;;;;;;;5.87;4.90;;;;;;;1.60;84.62;101085.70;1714094;81;21931;-68
2022/11/27 02:15:52;;;;;;;4.33;3.85;;;;;;;1.56;84.56;101078.90;1722035;81;21021;-68
2022/11/27 02:18:46;;;;;;;5.65;4.83;;;;;;;1.55;84.58;101087.61;1706407;81;21570;-69
2022/11/27 02:21:35;;;;;;;5.65;4.90;;;;;;;1.54;84.53;101084.13;1702136;80;21741;-74
2022/11/27 02:24:43;;;;;;;5.62;5.03;;;;;;;1.51;84.51;101088.14;1727301;80;21060;-70
2022/11/27 02:27:28;;;;;;;6.37;5.20;;;;;;;1.49;84.51;101088.64;1733387;80;21925;-69
2022/11/27 02:29:56;;;;;;;6.25;5.12;;;;;;;1.47;84.49;101093.50;1713030;80;21011;-68
2022/11/27 02:32:40;;;;;;;6.45;5.70;;;;;;;1.45;84.49;101090.95;1703418;81;21020;-68
2022/11/27 02:35:18;;;;;;;6.58;5.37;;;;;;;1.44;84.41;101093.12;1708111;81;21087;-68
2022/11/27 02:37:59;;;;;;;6.30;5.20;;;;;;;1.41;84.40;101098.42;1723679;81;21058;-69
2022/11/27 02:40:38;;;;;;;5.90;5.22;;;;;;;1.40;84.41;101096.73;1750193;81;21565;-71
2022/11/27 02:43:18;;;;;;;5.35;4.85;;;;;;;1.40;84.41;101098.88;1696447;82;20992;-68
2022/11/27 02:45:47;;;;;;;6.90;5.42;;;;;;;1.39;84.36;101101.08;1708396;80;21063;-68
2022/11/27 02:48:16;;;;;;;5.80;5.20;;;;;;;1.39;84.34;101101.53;1723704;81;21004;-68
2022/11/27 02:50:44;;;;;;;6.55;5.75;;;;;;;1.39;84.29;101101.53;1738388;82;21449;-68
2022/11/27 02:53:14;;;;;;;6.10;5.42;;;;;;;1.37;84.29;101097.67;1730846;80;21533;-68
2022/11/27 02:55:41;;;;;;;6.50;5.35;;;;;;;1.37;84.27;101100.73;1726525;80;21556;-68
2022/11/27 02:58:11;;;;;;;5.90;5.30;;;;;;;1.35;84.23;101097.30;1707623;81;21519;-68
2022/11/27 03:00:39;;;;;;;5.85;5.17;;;;;;;1.32;84.19;101095.64;1718347;80;21059;-73
2022/11/27 03:03:08;;;;;;;7.05;5.90;;;;;;;1.32;84.19;101096.09;1732020;80;21475;-68
2022/11/27 03:05:38;;;;;;;6.08;4.90;;;;;;;1.30;84.16;101098.75;1741881;80;22452;-68
2022/11/27 03:08:13;;;;;;;5.90;5.25;;;;;;;1.30;84.14;101101.36;1736464;80;21104;-68
2022/11/27 03:11:03;;;;;;;6.10;5.30;;;;;;;1.26;84.08;101099.75;1729682;82;21060;-68
2022/11/27 03:13:36;;;;;;;7.00;5.70;;;;;;;1.21;84.07;101103.38;1725827;81;21013;-68
2022/11/27 03:16:39;;;;;;;6.12;5.12;;;;;;;1.23;84.14;101109.38;1705418;82;21020;-68
2022/11/27 03:19:19;;;;;;;6.67;5.53;;;;;;;1.23;84.12;101110.23;1724635;81;22563;-68
2022/11/27 03:21:51;;;;;;;5.85;5.20;;;;;;;1.23;84.08;101110.68;1718511;82;21092;-69
2022/11/27 03:24:17;;;;;;;5.95;5.35;;;;;;;1.21;84.08;101111.18;1669307;84;21049;-69
2022/11/27 03:26:44;;;;;;;5.60;5.00;;;;;;;1.21;84.08;101108.58;1672462;82;21056;-68
2022/11/27 03:29:16;;;;;;;5.33;4.83;;;;;;;1.20;84.08;101110.78;1670250;84;21079;-69
2022/11/27 03:31:43;;;;;;;5.83;5.22;;;;;;;1.19;84.04;101112.98;1657609;84;21981;-68
2022/11/27 03:34:09;;;;;;;5.47;4.97;;;;;;;1.16;84.04;101110.03;1667930;83;21014;-69
2022/11/27 03:36:36;;;;;;;6.17;5.58;;;;;;;1.14;84.03;101112.64;1685416;83;20974;-69
2022/11/27 03:39:02;;;;;;;6.00;5.37;;;;;;;1.13;84.01;101111.39;1687744;83;21007;-70
2022/11/27 03:41:43;;;;;;;5.58;5.08;;;;;;;1.13;84.06;101110.09;1684724;83;20986;-69
2022/11/27 03:44:40;;;;;;;6.03;5.12;;;;;;;1.12;84.05;101107.94;1680000;83;22259;-69
2022/11/27 03:47:21;;;;;;;5.50;5.00;;;;;;;1.10;84.05;101108.44;1676206;84;21017;-68
2022/11/27 03:50:09;;;;;;;5.78;5.17;;;;;;;1.12;84.08;101107.09;1681732;83;20998;-69
2022/11/27 03:53:11;;;;;;;6.08;5.05;;;;;;;1.12;84.13;101101.89;1681922;85;20969;-68
2022/11/27 03:56:36;;;;;;;6.20;5.40;;;;;;;1.10;84.08;101105.84;1668976;84;21081;-68
2022/11/27 03:59:09;;;;;;;5.80;5.10;;;;;;;1.09;84.12;101100.23;1643695;83;22754;-69
2022/11/27 04:01:38;;;;;;;5.67;5.05;;;;;;;1.09;84.13;101105.44;1648224;84;21086;-70
2022/11/27 04:04:05;;;;;;;6.60;5.12;;;;;;;1.07;84.11;101103.33;1687687;83;21016;-70
2022/11/27 04:06:31;;;;;;;6.10;5.50;;;;;;;1.06;84.11;101107.25;1677960;84;21468;-69
2022/11/27 04:08:58;;;;;;;5.50;5.00;;;;;;;1.07;84.14;101107.23;1685943;83;20982;-69
2022/11/27 04:11:25;;;;;;;5.47;4.87;;;;;;;1.10;84.14;101111.05;1669785;83;21923;-69
2022/11/27 04:13:51;;;;;;;5.53;4.95;;;;;;;1.09;84.09;101107.19;1672571;83;21022;-69
2022/11/27 04:16:18;;;;;;;5.80;5.20;;;;;;;1.07;84.09;101112.44;1668497;83;21031;-72
2022/11/27 04:18:45;;;;;;;5.90;5.30;;;;;;;1.04;84.08;101107.30;1672786;83;21508;-67
2022/11/27 04:21:11;;;;;;;5.15;4.65;;;;;;;1.04;84.13;101104.70;1682799;83;21048;-68
2022/11/27 04:23:39;;;;;;;5.83;5.22;;;;;;;1.04;84.14;101110.35;1716069;81;21982;-68
2022/11/27 04:26:06;;;;;;;5.70;5.17;;;;;;;1.02;84.11;101107.80;1751198;81;21055;-68
2022/11/27 04:28:32;;;;;;;10.72;9.50;;;;;;;1.01;84.13;101109.15;1686737;82;21434;-68
2022/11/27 04:30:59;;;;;;;47.67;37.35;;;;;;;1.00;84.15;101113.50;1727681;81;21012;-68
2022/11/27 04:33:26;;;;;;;25.65;21.17;;;;;;;1.00;84.16;101112.20;1719788;81;20970;-68
2022/11/27 04:35:53;;;;;;;7.03;5.85;;;;;;;0.98;84.19;101111.40;1740410;81;22343;-68
2022/11/27 04:38:20;;;;;;;5.42;4.92;;;;;;;0.95;84.15;101109.31;1732606;81;20996;-69
2022/11/27 04:40:46;;;;;;;5.03;4.53;;;;;;;0.94;84.19;101116.26;1726962;81;20977;-70
2022/11/27 04:43:13;;;;;;;5.05;4.47;;;;;;;0.93;84.21;101118.46;1728340;82;21003;-69
2022/11/27 04:45:40;;;;;;;5.35;4.85;;;;;;;0.96;84.28;101117.06;1724196;81;20984;-68
2022/11/27 04:48:07;;;;;;;5.95;5.35;;;;;;;0.97;84.29;101111.45;1717964;81;22021;-69
2022/11/27 04:50:33;;;;;;;6.72;6.03;;;;;;;0.96;84.29;101115.77;1734928;82;21044;-68
2022/11/27 04:53:00;;;;;;;5.20;4.70;;;;;;;0.97;84.28;101107.55;1722209;81;20944;-68
2022/11/27 04:55:26;;;;;;;6.47;5.87;;;;;;;0.97;84.29;101110.99;1724438;81;21433;-68
2022/11/27 04:57:53;;;;;;;5.80;5.20;;;;;;;0.99;84.27;101115.70;1735164;81;21005;-69
2022/11/27 05:00:20;;;;;;;7.17;5.97;;;;;;;1.03;84.13;101114.70;1734842;81;21918;-72
2022/11/27 05:02:46;;;;;;;5.30;4.80;;;;;;;1.05;84.08;101114.66;1737838;81;20972;-69
2022/11/27 05:05:13;;;;;;;6.28;5.42;;;;;;;1.05;84.07;101116.81;1755434;81;21442;-68
2022/11/27 05:07:40;;;;;;;7.20;6.50;;;;;;;1.06;84.04;101118.54;1745711;81;21020;-69
2022/11/27 05:10:08;;;;;;;7.15;6.45;;;;;;;1.07;84.03;101122.00;1723038;81;21052;-68
2022/11/27 05:12:35;;;;;;;6.33;5.72;;;;;;;1.05;83.99;101117.26;1712581;81;21897;-69
2022/11/27 05:15:03;;;;;;;5.47;4.97;;;;;;;1.05;83.98;101123.31;1737667;81;21040;-68
2022/11/27 05:17:30;;;;;;;7.95;7.12;;;;;;;1.05;84.02;101124.61;1721606;81;21009;-68
2022/11/27 05:19:56;;;;;;;18.02;14.47;;;;;;;1.05;84.00;101125.91;1699530;81;21021;-68
2022/11/27 05:22:23;;;;;;;8.63;6.90;;;;;;;1.06;84.01;101126.34;1723454;81;21012;-69
2022/11/27 05:24:49;;;;;;;6.12;5.45;;;;;;;1.05;84.00;101127.21;1717917;81;21813;-69
2022/11/27 05:27:15;;;;;;;9.63;8.63;;;;;;;1.03;84.00;101127.71;1704379;81;20985;-69
2022/11/27 05:29:43;;;;;;;11.35;10.13;;;;;;;1.04;84.03;101133.31;1715849;82;20969;-69
2022/11/27 05:32:10;;;;;;;20.68;18.48;;;;;;;1.05;83.99;101135.47;1735393;81;21017;-69
2022/11/27 05:34:38;;;;;;;52.48;37.83;;;;;;;1.03;83.99;101137.27;1712368;81;20976;-69
2022/11/27 05:37:04;;;;;;;25.75;19.52;;;;;;;1.03;84.01;101139.41;1697755;81;22500;-69
2022/11/27 05:39:31;;;;;;;26.33;20.17;;;;;;;1.03;84.03;101139.87;1720633;80;21827;-69
2022/11/27 05:41:57;;;;;;;9.28;7.75;;;;;;;1.01;84.02;101139.06;1780069;80;21448;-68
2022/11/27 05:44:25;;;;;;;8.25;6.90;;;;;;;1.03;84.05;101143.31;1723054;81;21460;-69
2022/11/27 05:46:53;;;;;;;6.70;5.85;;;;;;;1.02;84.04;101145.52;1747301;80;21037;-69
2022/11/27 05:49:21;;;;;;;5.08;4.58;;;;;;;1.03;84.05;101146.38;1734638;80;21815;-69
2022/11/27 05:51:49;;;;;;;5.00;4.50;;;;;;;1.02;84.03;101145.52;1726318;80;21368;-69
2022/11/27 05:54:16;;;;;;;5.92;5.37;;;;;;;1.01;83.99;101149.02;1733934;80;21008;-71
2022/11/27 05:56:43;;;;;;;4.83;4.33;;;;;;;1.01;84.03;101146.87;1735128;80;21028;-70
2022/11/27 05:59:10;;;;;;;4.37;3.98;;;;;;;1.02;84.07;101155.92;1729871;80;20949;-68
2022/11/27 06:01:37;;;;;;;4.85;4.30;;;;;;;1.02;84.04;101152.47;1697972;83;21861;-68
2022/11/27 06:04:04;;;;;;;4.75;4.28;;;;;;;1.02;84.03;101154.63;1736813;81;20993;-68
2022/11/27 06:06:31;;;;;;;7.42;6.60;;;;;;;1.03;84.04;101154.17;1731227;80;21020;-68
2022/11/27 06:09:00;;;;;;;5.65;5.15;;;;;;;1.04;84.07;101155.42;1691692;83;21764;-68
2022/11/27 06:11:28;;;;;;;6.33;5.72;;;;;;;1.06;84.06;101161.88;1736529;80;21648;-68
2022/11/27 06:13:56;;;;;;;7.12;6.42;;;;;;;1.04;84.04;101161.94;1728226;81;21476;-68
2022/11/27 06:16:23;;;;;;;7.05;6.35;;;;;;;1.06;84.08;101157.56;1723791;80;21044;-71
2022/11/27 06:18:53;;;;;;;5.25;4.75;;;;;;;1.06;84.02;101171.88;1725714;80;21024;-68
2022/11/27 06:21:21;;;;;;;5.08;4.58;;;;;;;1.06;83.99;101168.39;1737346;80;21008;-68
2022/11/27 06:23:48;;;;;;;5.40;4.90;;;;;;;1.04;83.99;101164.98;1692474;82;21079;-68
2022/11/27 06:26:21;;;;;;;5.40;4.80;;;;;;;1.02;84.00;101167.62;1721951;81;21890;-68
2022/11/27 06:28:48;;;;;;;5.00;4.50;;;;;;;1.01;84.04;101167.23;1688754;83;20969;-67
2022/11/27 06:31:18;;;;;;;4.75;4.25;;;;;;;1.03;84.07;101165.87;1695600;82;21111;-71
2022/11/27 06:33:49;;;;;;;4.45;4.05;;;;;;;1.04;84.07;101161.94;1689023;84;20979;-68
2022/11/27 06:36:17;;;;;;;4.60;4.15;;;;;;;1.05;84.06;101170.14;1713981;81;21025;-68
2022/11/27 06:38:44;;;;;;;4.37;3.98;;;;;;;1.06;84.04;101166.67;1732564;81;21765;-69
2022/11/27 06:41:13;;;;;;;17.85;13.88;;;;;;;1.06;84.06;101161.47;1711839;82;21418;-68
2022/11/27 06:43:40;;;;;;;11.68;9.28;;;;;;;1.08;84.09;101165.32;1708412;83;20961;-69
2022/11/27 06:46:10;;;;;;;19.92;15.03;;;;;;;1.07;84.06;101163.17;1709709;81;21108;-68
2022/11/27 06:48:36;;;;;;;8.48;6.65;;;;;;;1.07;84.06;101161.87;1705650;81;21024;-68
2022/11/27 06:51:06;;;;;;;13.10;10.50;;;;;;;1.09;84.06;101160.07;1728046;81;21113;-69
2022/11/27 06:53:36;;;;;;;7.08;5.78;;;;;;;1.07;84.01;101159.27;1710285;81;20997;-68
2022/11/27 06:56:04;;;;;;;4.62;4.03;;;;;;;1.08;84.00;101162.72;1710808;81;21062;-68
2022/11/27 06:58:32;;;;;;;4.78;4.28;;;;;;;1.06;83.99;101164.48;1705357;82;21071;-70
2022/11/27 07:00:59;;;;;;;5.22;4.72;;;;;;;1.06;84.03;101164.07;1712749;81;21101;-72
2022/11/27 07:03:26;;;;;;;3.62;3.33;;;;;;;1.07;84.03;101159.72;1704096;81;21944;-69
2022/11/27 07:05:52;;;;;;;4.12;3.55;;;;;;;1.06;84.01;101164.07;1718308;81;21069;-69
2022/11/27 07:08:21;;;;;;;3.65;2.92;;;;;;;1.08;84.03;101166.17;1708475;83;21047;-68
2022/11/27 07:10:48;;;;;;;3.52;3.12;;;;;;;1.09;84.00;101164.42;1711711;81;21139;-69
2022/11/27 07:13:16;;;;;;;3.75;3.00;;;;;;;1.09;83.99;101171.78;1715741;81;21059;-70
2022/11/27 07:15:43;;;;;;;5.12;4.62;;;;;;;1.09;83.99;101167.88;1713436;81;21813;-71
2022/11/27 07:18:10;;;;;;;5.97;5.15;;;;;;;1.08;83.98;101167.48;1701791;83;21017;-67
2022/11/27 07:20:37;;;;;;;4.97;4.47;;;;;;;1.10;83.98;101168.28;1710583;83;21047;-67
2022/11/27 07:23:03;;;;;;;4.83;4.30;;;;;;;1.10;84.01;101166.13;1703906;82;21072;-74
2022/11/27 07:25:30;;;;;;;4.15;3.67;;;;;;;1.14;84.06;101158.63;1699213;81;21029;-70
2022/11/27 07:27:57;;;;;;;7.85;6.95;;;;;;;1.16;84.06;101160.77;1707304;81;22043;-71
2022/11/27 07:30:24;;;;;;;4.35;3.95;;;;;;;1.19;84.04;101167.62;1713606;81;21079;-74
2022/11/27 07:32:51;;;;;;;4.87;4.28;;;;;;;1.19;83.96;101171.08;1722356;81;21478;-70
2022/11/27 07:35:18;;;;;;;4.35;3.87;;;;;;;1.19;83.97;101167.17;1716245;81;21590;-69
2022/11/27 07:37:45;;;;;;;3.72;3.33;;;;;;;1.20;83.97;101169.33;1721197;83;21075;-70
2022/11/27 07:40:12;;;;;;;3.20;2.90;;;;;;;1.21;83.98;101167.12;1698713;81;21741;-69
2022/11/27 07:42:38;;;;;;;3.40;3.08;;;;;;;1.23;83.99;101168.78;1708415;81;21056;-72
2022/11/27 07:45:07;;;;;;;2.60;2.40;;;;;;;1.24;83.96;101169.63;1709318;82;21123;-71
2022/11/27 07:47:34;;;;;;;3.55;2.80;;;;;;;1.24;83.91;101169.18;1735241;80;21059;-71
2022/11/27 07:50:01;;;;;;;2.60;2.20;;;;;;;1.21;83.89;101167.12;1710347;81;20997;-70
2022/11/27 07:52:27;;;;;;;5.92;4.55;;;;;;;1.21;83.82;101173.63;1700253;81;22346;-72
2022/11/27 07:54:54;;;;;;;3.80;3.40;;;;;;;1.19;83.82;101171.52;1705856;81;21094;-73
2022/11/27 07:57:21;;;;;;;21.40;15.40;;;;;;;1.21;83.85;101165.82;1699711;81;21078;-70
2022/11/27 07:59:48;;;;;;;15.35;11.38;;;;;;;1.21;83.86;101174.93;1711213;81;21103;-71
2022/11/27 08:02:14;;;;;;;10.18;8.45;;;;;;;1.24;83.85;101178.73;1715093;81;21043;-72
2022/11/27 08:04:43;;;;;;;5.97;5.03;;;;;;;1.26;83.83;101169.16;1699865;81;21099;-70
2022/11/27 08:07:09;;;;;;;4.00;3.58;;;;;;;1.28;83.85;101173.87;1702832;81;21484;-70
2022/11/27 08:09:36;;;;;;;3.37;3.08;;;;;;;1.32;83.87;101176.78;1704974;81;21092;-69
2022/11/27 08:12:06;;;;;;;2.70;2.50;;;;;;;1.35;83.83;101181.88;1717903;81;21610;-69
2022/11/27 08:14:33;;;;;;;2.52;2.17;;;;;;;1.35;83.80;101179.28;1708930;83;21075;-70
2022/11/27 08:16:59;;;;;;;3.05;2.75;;;;;;;1.36;83.78;101178.41;1721859;82;21886;-69
2022/11/27 08:19:26;;;;;;;2.87;2.58;;;;;;;1.39;83.80;101179.62;1718690;81;21045;-69
2022/11/27 08:21:52;;;;;;;2.62;2.37;;;;;;;1.39;83.75;101181.77;1721066;82;21075;-71
2022/11/27 08:24:19;;;;;;;5.70;5.15;;;;;;;1.39;83.73;101175.72;1683918;83;21050;-70
2022/11/27 08:26:47;;;;;;;3.27;2.75;;;;;;;1.39;83.69;101179.62;1672752;83;21076;-71
2022/11/27 08:29:13;;;;;;;7.40;6.17;;;;;;;1.36;83.48;101184.92;1673333;84;21517;-71
2022/11/27 08:31:40;;;;;;;4.65;3.62;;;;;;;1.32;83.50;101172.87;1660714;83;21498;-71
2022/11/27 08:34:06;;;;;;;18.10;15.58;;;;;;;1.32;83.53;101173.72;1669005;84;21467;-70
2022/11/27 08:36:33;;;;;;;7.80;7.00;;;;;;;1.33;83.59;101174.58;1667410;83;21575;-71
2022/11/27 08:39:00;;;;;;;14.55;12.00;;;;;;;1.38;83.60;101168.80;1668436;83;21152;-70
2022/11/27 08:41:27;;;;;;;6.87;5.80;;;;;;;1.40;83.61;101177.42;1670668;83;21827;-69
2022/11/27 08:43:54;;;;;;;6.10;4.17;;;;;;;1.44;83.61;101182.48;1672954;83;21095;-71
2022/11/27 08:46:20;;;;;;;8.08;6.53;;;;;;;1.42;83.49;101185.58;1676150;83;21132;-70
2022/11/27 08:48:47;;;;;;;5.20;4.50;;;;;;;1.41;83.43;101181.27;1682529;83;21096;-73
2022/11/27 08:51:14;;;;;;;6.03;4.60;;;;;;;1.45;83.46;101178.16;1669678;83;21045;-69
2022/11/27 08:53:41;;;;;;;6.58;5.97;;;;;;;1.46;83.39;101173.80;1666763;83;21839;-71
2022/11/27 08:56:15;;;;;;;4.60;4.20;;;;;;;1.47;83.33;101176.80;1671145;83;21018;-69
2022/11/27 08:58:42;;;;;;;21.68;16.55;;;;;;;1.48;83.36;101189.77;1684247;83;21067;-69
2022/11/27 09:01:15;;;;;;;23.15;17.30;;;;;;;1.53;83.42;101189.17;1666486;83;21326;-71
2022/11/27 09:03:42;;;;;;;20.62;17.50;;;;;;;1.60;83.47;101184.20;1684874;83;21057;-69
2022/11/27 09:06:10;;;;;;;34.73;25.40;;;;;;;1.64;83.48;101183.23;1671285;83;21812;-68
2022/11/27 09:08:39;;;;;;;26.42;20.17;;;;;;;1.70;83.51;101184.33;1667773;83;21022;-69
2022/11/27 09:11:06;;;;;;;7.20;6.10;;;;;;;1.76;83.46;101188.52;1677083;83;21026;-69
2022/11/27 09:13:35;;;;;;;11.75;10.48;;;;;;;1.77;83.34;101181.09;1675849;83;21072;-71
2022/11/27 09:16:01;;;;;;;6.30;5.62;;;;;;;1.79;83.32;101185.80;1668808;83;21076;-72
2022/11/27 09:18:29;;;;;;;6.47;5.80;;;;;;;1.81;83.29;101184.45;1678846;83;21090;-72
2022/11/27 09:21:06;;;;;;;6.05;5.45;;;;;;;1.84;83.27;101187.84;1669369;83;21107;-70
2022/11/27 09:23:32;;;;;;;5.40;4.90;;;;;;;1.83;83.04;101186.10;1687511;83;21439;-70
2022/11/27 09:26:02;;;;;;;7.33;6.20;;;;;;;1.78;82.91;101188.46;1705172;81;21107;-70
2022/11/27 09:28:28;;;;;;;17.23;14.35;;;;;;;1.81;83.00;101186.61;1714184;81;21036;-71
2022/11/27 09:30:56;;;;;;;10.95;9.80;;;;;;;1.86;83.00;101185.17;1708019;81;21911;-70
2022/11/27 09:33:24;;;;;;;7.00;6.30;;;;;;;1.89;82.95;101185.08;1710248;81;21669;-70
2022/11/27 09:35:50;;;;;;;4.08;3.67;;;;;;;1.88;82.88;101175.56;1724985;81;21054;-70
2022/11/27 09:38:17;;;;;;;5.65;5.15;;;;;;;1.85;82.75;101173.91;1715793;81;20997;-71
2022/11/27 09:40:47;;;;;;;4.40;4.00;;;;;;;1.87;82.74;101179.06;1712013;81;21470;-70
2022/11/27 09:43:14;;;;;;;5.55;5.05;;;;;;;1.90;82.75;101178.96;1705969;81;21854;-70
2022/11/27 09:45:56;;;;;;;41.68;29.40;;;;;;;1.94;82.77;101185.80;1710877;83;21013;-69
2022/11/27 09:48:38;;;;;;;24.75;19.65;;;;;;;1.94;82.65;101171.47;1718518;81;21052;-71
2022/11/27 09:51:26;;;;;;;10.28;8.88;;;;;;;1.93;82.53;101171.05;1700084;81;21093;-71
2022/11/27 09:54:17;;;;;;;4.75;4.35;;;;;;;1.90;82.39;101180.27;1717002;81;45906;-71
2022/11/27 09:56:47;;;;;;;4.35;3.95;;;;;;;1.88;82.29;101182.07;1712107;81;21856;-73
2022/11/27 09:59:34;;;;;;;8.43;7.53;;;;;;;1.83;82.20;101178.73;1706756;83;21071;-73
2022/11/27 10:02:01;;;;;;;6.70;6.00;;;;;;;1.80;82.20;101178.39;1707799;81;21512;-73
2022/11/27 10:04:28;;;;;;;11.18;10.03;;;;;;;1.82;82.21;101183.09;1716220;81;21051;-74
2022/11/27 10:07:28;;;;;;;12.50;11.20;;;;;;;1.81;82.10;101181.84;1705928;81;21103;-72
2022/11/27 10:10:09;;;;;;;8.03;7.22;;;;;;;1.81;82.12;101179.23;1707835;82;22000;-73
2022/11/27 10:13:01;;;;;;;4.42;4.03;;;;;;;1.86;82.15;101173.45;1715057;82;21024;-74
2022/11/27 10:15:50;;;;;;;5.08;4.58;;;;;;;1.88;82.12;101170.34;1684644;83;20989;-71
2022/11/27 10:18:39;;;;;;;4.05;3.65;;;;;;;1.89;82.06;101170.30;1700059;83;20998;-69
2022/11/27 10:21:22;;;;;;;25.32;18.73;;;;;;;1.86;81.91;101176.06;1701574;82;21025;-68
2022/11/27 10:24:28;;;;;;;14.10;11.63;;;;;;;1.86;81.98;101175.61;1700806;83;21866;-69
2022/11/27 10:26:58;;;;;;;5.87;5.28;;;;;;;1.89;81.97;101165.09;1716336;82;21017;-67
2022/11/27 10:29:38;;;;;;;5.50;5.00;;;;;;;1.88;81.85;101169.05;1720497;81;21020;-67
2022/11/27 10:32:13;;;;;;;4.00;3.52;;;;;;;1.92;81.97;101161.52;1666851;85;22161;-68
2022/11/27 10:35:01;;;;;;;8.03;6.87;;;;;;;1.92;81.80;101161.52;1681861;83;21080;-67
2022/11/27 10:37:40;;;;;;;12.45;9.93;;;;;;;1.89;81.73;101164.23;1708093;83;22054;-70
2022/11/27 10:40:15;;;;;;;15.78;12.23;;;;;;;1.87;81.78;101162.98;1707966;83;21020;-69
2022/11/27 10:43:09;;;;;;;8.38;6.47;;;;;;;1.88;81.76;101162.08;1708325;83;21084;-69
2022/11/27 10:45:47;;;;;;;13.25;10.85;;;;;;;1.93;81.78;101161.50;1687383;83;21510;-70
2022/11/27 10:48:13;;;;;;;13.05;11.55;;;;;;;1.97;81.72;101158.34;1717544;83;21064;-70
2022/11/27 10:50:40;;;;;;;7.22;6.45;;;;;;;1.97;81.64;101156.59;1710589;83;21784;-70
2022/11/27 10:53:10;;;;;;;9.53;8.63;;;;;;;1.99;81.62;101157.38;1713645;83;21389;-69
2022/11/27 10:56:24;;;;;;;4.80;4.33;;;;;;;2.01;81.63;101162.54;1706516;83;20953;-69
2022/11/27 10:59:14;;;;;;;33.67;18.10;;;;;;;2.06;81.61;101160.66;1709718;82;21009;-70
2022/11/27 11:01:45;;;;;;;56.90;31.50;;;;;;;2.04;81.61;101155.95;1704896;84;21077;-68
2022/11/27 11:04:14;;;;;;;31.17;15.75;;;;;;;2.06;81.57;101159.36;1700931;82;21960;-68
2022/11/27 11:06:47;;;;;;;152.85;75.52;;;;;;;2.04;81.49;101156.41;1708554;84;20982;-68
2022/11/27 11:09:21;;;;;;;46.73;25.57;;;;;;;2.04;81.51;101153.80;1713242;81;21731;-67
2022/11/27 11:11:49;;;;;;;30.12;21.27;;;;;;;2.03;81.45;101154.25;1715427;82;20954;-68
2022/11/27 11:14:25;;;;;;;10.90;9.35;;;;;;;2.01;81.37;101155.58;1705057;84;20961;-67
2022/11/27 11:16:53;;;;;;;6.10;5.47;;;;;;;1.98;81.28;101154.38;1723483;82;22568;-69
2022/11/27 11:19:26;;;;;;;8.13;6.75;;;;;;;1.93;81.25;101148.90;1708435;82;21348;-68
2022/11/27 11:21:52;;;;;;;13.58;11.05;;;;;;;1.97;81.35;101153.13;1706967;82;21056;-68
2022/11/27 11:24:29;;;;;;;13.90;9.00;;;;;;;2.00;81.40;101151.27;1705033;83;21015;-68
2022/11/27 11:27:02;;;;;;;60.63;38.25;;;;;;;2.01;81.30;101149.52;1731368;82;20996;-68
2022/11/27 11:29:43;;;;;;;77.30;43.30;;;;;;;1.96;81.24;101150.12;1734028;81;21827;-68
2022/11/27 11:32:17;;;;;;;76.25;43.40;;;;;;;1.98;81.23;101153.53;1719243;82;21107;-68
2022/11/27 11:34:52;;;;;;;133.78;70.17;;;;;;;1.99;81.28;101149.56;1731588;82;21443;-68
2022/11/27 11:37:33;;;;;;;111.60;60.03;;;;;;;1.96;81.19;101149.67;1713001;82;20982;-68
2022/11/27 11:40:10;;;;;;;55.55;30.27;;;;;;;1.97;81.18;101153.13;1712054;82;20953;-68
2022/11/27 11:42:37;;;;;;;18.07;11.10;;;;;;;1.96;81.17;101152.73;1704242;84;21917;-68
2022/11/27 11:45:17;;;;;;;8.55;6.42;;;;;;;1.92;81.12;101157.62;1713304;82;21001;-68
2022/11/27 11:47:46;;;;;;;4.60;4.00;;;;;;;1.89;81.15;101154.67;1705603;83;21471;-68
2022/11/27 11:50:31;;;;;;;3.40;2.85;;;;;;;1.85;81.13;101156.98;1723056;81;21148;-67